sensor_id;sensor_type;location;lat;lon;timestamp;pressure;altitude;pressure_sealevel;temperature;humidity
10978;BME280;5542;48.272;10.794;2024-02-15T00:00:10;96198.69;;;8.00;84.17
10978;BME280;5542;48.272;10.794;2024-02-15T00:02:37;96193.25;;;7.94;84.24
10978;BME280;5542;48.272;10.794;2024-02-15T00:05:04;96189.03;;;7.93;83.92
10978;BME280;5542;48.272;10.794;2024-02-15T00:07:32;96189.22;;;7.85;84.19
10978;BME280;5542;48.272;10.794;2024-02-15T00:10:00;96196.47;;;7.83;84.40
10978;BME280;5542;48.272;10.794;2024-02-15T00:12:29;96187.00;;;7.82;84.29
10978;BME280;5542;48.272;10.794;2024-02-15T00:14:55;96187.19;;;7.81;84.44
10978;BME280;5542;48.272;10.794;2024-02-15T00:17:23;96199.09;;;7.83;84.45
10978;BME280;5542;48.272;10.794;2024-02-15T00:19:50;96198.88;;;7.85;84.38
10978;BME280;5542;48.272;10.794;2024-02-15T00:22:16;96204.94;;;7.85;84.06
10978;BME280;5542;48.272;10.794;2024-02-15T00:24:45;96208.56;;;7.84;84.00
10978;BME280;5542;48.272;10.794;2024-02-15T00:27:13;96201.91;;;7.82;83.90
10978;BME280;5542;48.272;10.794;2024-02-15T00:29:40;96196.88;;;7.80;83.90
10978;BME280;5542;48.272;10.794;2024-02-15T00:32:08;96201.09;;;7.81;83.85
10978;BME280;5542;48.272;10.794;2024-02-15T00:34:35;96198.47;;;7.81;84.05
10978;BME280;5542;48.272;10.794;2024-02-15T00:37:03;96200.50;;;7.79;84.19
10978;BME280;5542;48.272;10.794;2024-02-15T00:39:30;96201.69;;;7.77;84.53
10978;BME280;5542;48.272;10.794;2024-02-15T00:41:58;96202.69;;;7.76;84.53
10978;BME280;5542;48.272;10.794;2024-02-15T00:44:25;96200.88;;;7.76;84.48
10978;BME280;5542;48.272;10.794;2024-02-15T00:46:52;96199.44;;;7.74;84.45
10978;BME280;5542;48.272;10.794;2024-02-15T00:49:19;96203.28;;;7.71;84.88
10978;BME280;5542;48.272;10.794;2024-02-15T00:51:46;96203.28;;;7.71;84.97
10978;BME280;5542;48.272;10.794;2024-02-15T00:54:13;96204.31;;;7.70;85.10
10978;BME280;5542;48.272;10.794;2024-02-15T00:56:40;96202.50;;;7.70;85.15
10978;BME280;5542;48.272;10.794;2024-02-15T00:59:08;96199.44;;;7.74;85.04
10978;BME280;5542;48.272;10.794;2024-02-15T01:01:35;96195.44;;;7.71;85.33
10978;BME280;5542;48.272;10.794;2024-02-15T01:04:03;96193.19;;;7.68;85.53
10978;BME280;5542;48.272;10.794;2024-02-15T01:06:30;96192.00;;;7.70;85.82
10978;BME280;5542;48.272;10.794;2024-02-15T01:08:56;96195.44;;;7.71;85.96
10978;BME280;5542;48.272;10.794;2024-02-15T01:11:23;96184.34;;;7.69;86.17
10978;BME280;5542;48.272;10.794;2024-02-15T01:13:51;96186.97;;;7.69;86.26
10978;BME280;5542;48.272;10.794;2024-02-15T01:16:19;96188.78;;;7.68;86.25
10978;BME280;5542;48.272;10.794;2024-02-15T01:18:46;96194.63;;;7.70;86.53
10978;BME280;5542;48.272;10.794;2024-02-15T01:21:13;96193.63;;;7.72;86.57
10978;BME280;5542;48.272;10.794;2024-02-15T01:23:40;96190.59;;;7.68;86.59
10978;BME280;5542;48.272;10.794;2024-02-15T01:26:06;96191.38;;;7.68;86.73
10978;BME280;5542;48.272;10.794;2024-02-15T01:28:33;96192.44;;;7.74;86.72
10978;BME280;5542;48.272;10.794;2024-02-15T01:31:00;96196.03;;;7.73;86.66
10978;BME280;5542;48.272;10.794;2024-02-15T01:33:28;96187.38;;;7.66;87.13
10978;BME280;5542;48.272;10.794;2024-02-15T01:35:57;96183.16;;;7.65;87.13
10978;BME280;5542;48.272;10.794;2024-02-15T01:38:23;96190.38;;;7.63;87.21
10978;BME280;5542;48.272;10.794;2024-02-15T01:40:50;96189.56;;;7.62;87.71
10978;BME280;5542;48.272;10.794;2024-02-15T01:43:16;96190.38;;;7.56;88.02
10978;BME280;5542;48.272;10.794;2024-02-15T01:45:43;96194.19;;;7.54;88.41
10978;BME280;5542;48.272;10.794;2024-02-15T01:48:12;96185.56;;;7.60;88.24
10978;BME280;5542;48.272;10.794;2024-02-15T01:50:41;96186.16;;;7.62;88.03
10978;BME280;5542;48.272;10.794;2024-02-15T01:53:09;96180.72;;;7.57;88.26
10978;BME280;5542;48.272;10.794;2024-02-15T01:55:37;96190.53;;;7.55;87.97
10978;BME280;5542;48.272;10.794;2024-02-15T01:58:05;96190.38;;;7.56;88.00
10978;BME280;5542;48.272;10.794;2024-02-15T02:00:32;96189.56;;;7.56;87.98
10978;BME280;5542;48.272;10.794;2024-02-15T02:03:00;96185.53;;;7.53;87.90
10978;BME280;5542;48.272;10.794;2024-02-15T02:05:28;96184.50;;;7.48;87.95
10978;BME280;5542;48.272;10.794;2024-02-15T02:07:57;96175.03;;;7.47;88.22
10978;BME280;5542;48.272;10.794;2024-02-15T02:10:26;96168.22;;;7.46;87.85
10978;BME280;5542;48.272;10.794;2024-02-15T02:12:58;96164.97;;;7.43;87.80
10978;BME280;5542;48.272;10.794;2024-02-15T02:15:24;96163.34;;;7.42;87.81
10978;BME280;5542;48.272;10.794;2024-02-15T02:17:51;96167.78;;;7.42;87.73
10978;BME280;5542;48.272;10.794;2024-02-15T02:22:48;96171.81;;;7.44;87.29
10978;BME280;5542;48.272;10.794;2024-02-15T02:25:18;96172.81;;;7.43;87.51
10978;BME280;5542;48.272;10.794;2024-02-15T02:27:45;96164.97;;;7.43;87.40
10978;BME280;5542;48.272;10.794;2024-02-15T02:30:15;96164.56;;;7.47;87.27
10978;BME280;5542;48.272;10.794;2024-02-15T02:32:44;96159.34;;;7.47;86.96
10978;BME280;5542;48.272;10.794;2024-02-15T02:35:11;96159.72;;;7.43;87.02
10978;BME280;5542;48.272;10.794;2024-02-15T02:37:38;96164.75;;;7.45;86.94
10978;BME280;5542;48.272;10.794;2024-02-15T02:40:06;96165.59;;;7.46;86.88
10978;BME280;5542;48.272;10.794;2024-02-15T02:42:35;96158.13;;;7.42;86.92
10978;BME280;5542;48.272;10.794;2024-02-15T02:45:02;96152.25;;;7.40;86.92
10978;BME280;5542;48.272;10.794;2024-02-15T02:47:30;96149.47;;;7.42;86.81
10978;BME280;5542;48.272;10.794;2024-02-15T02:49:57;96147.66;;;7.42;86.69
10978;BME280;5542;48.272;10.794;2024-02-15T02:52:23;96146.84;;;7.42;86.39
10978;BME280;5542;48.272;10.794;2024-02-15T02:54:50;96148.03;;;7.39;86.32
10978;BME280;5542;48.272;10.794;2024-02-15T02:57:16;96146.81;;;7.35;86.23
10978;BME280;5542;48.272;10.794;2024-02-15T02:59:45;96155.66;;;7.28;86.61
10978;BME280;5542;48.272;10.794;2024-02-15T03:02:12;96157.66;;;7.26;86.89
10978;BME280;5542;48.272;10.794;2024-02-15T03:04:39;96159.09;;;7.22;86.86
10978;BME280;5542;48.272;10.794;2024-02-15T03:07:06;96153.22;;;7.19;86.90
10978;BME280;5542;48.272;10.794;2024-02-15T03:09:32;96151.41;;;7.20;86.60
10978;BME280;5542;48.272;10.794;2024-02-15T03:11:59;96150.41;;;7.21;86.20
10978;BME280;5542;48.272;10.794;2024-02-15T03:14:26;96149.81;;;7.19;86.03
10978;BME280;5542;48.272;10.794;2024-02-15T03:16:56;96143.13;;;7.16;85.89
10978;BME280;5542;48.272;10.794;2024-02-15T03:19:23;96148.34;;;7.10;85.91
10978;BME280;5542;48.272;10.794;2024-02-15T03:21:51;96142.69;;;7.00;85.99
10978;BME280;5542;48.272;10.794;2024-02-15T03:24:18;96135.63;;;6.93;86.09
10978;BME280;5542;48.272;10.794;2024-02-15T03:26:45;96141.03;;;6.85;85.84
10978;BME280;5542;48.272;10.794;2024-02-15T03:29:11;96140.59;;;6.82;85.97
10978;BME280;5542;48.272;10.794;2024-02-15T03:31:38;96142.41;;;6.81;85.72
10978;BME280;5542;48.272;10.794;2024-02-15T03:34:06;96138.19;;;6.80;85.57
10978;BME280;5542;48.272;10.794;2024-02-15T03:36:33;96147.03;;;6.79;85.35
10978;BME280;5542;48.272;10.794;2024-02-15T03:39:00;96148.22;;;6.77;84.73
10978;BME280;5542;48.272;10.794;2024-02-15T03:41:27;96148.19;;;6.70;84.96
10978;BME280;5542;48.272;10.794;2024-02-15T03:43:56;96147.97;;;6.65;85.37
10978;BME280;5542;48.272;10.794;2024-02-15T03:46:23;96138.13;;;6.67;85.37
10978;BME280;5542;48.272;10.794;2024-02-15T03:48:50;96144.72;;;6.63;84.92
10978;BME280;5542;48.272;10.794;2024-02-15T03:51:19;96148.72;;;6.59;85.07
10978;BME280;5542;48.272;10.794;2024-02-15T03:53:45;96146.69;;;6.54;85.14
10978;BME280;5542;48.272;10.794;2024-02-15T03:56:14;96151.31;;;6.52;85.21
10978;BME280;5542;48.272;10.794;2024-02-15T03:58:41;96147.66;;;6.47;85.48
10978;BME280;5542;48.272;10.794;2024-02-15T04:01:07;96155.66;;;6.45;86.03
10978;BME280;5542;48.272;10.794;2024-02-15T04:03:35;96153.25;;;6.44;86.13
10978;BME280;5542;48.272;10.794;2024-02-15T04:06:02;96148.03;;;6.44;86.35
10978;BME280;5542;48.272;10.794;2024-02-15T04:08:31;96156.88;;;6.43;86.26
10978;BME280;5542;48.272;10.794;2024-02-15T04:10:57;96151.00;;;6.40;86.31
10978;BME280;5542;48.272;10.794;2024-02-15T04:13:24;96150.22;;;6.40;86.02
10978;BME280;5542;48.272;10.794;2024-02-15T04:15:50;96154.03;;;6.37;85.94
10978;BME280;5542;48.272;10.794;2024-02-15T04:18:18;96151.59;;;6.36;85.87
10978;BME280;5542;48.272;10.794;2024-02-15T04:20:45;96152.59;;;6.35;85.52
10978;BME280;5542;48.272;10.794;2024-02-15T04:23:12;96161.22;;;6.35;85.25
10978;BME280;5542;48.272;10.794;2024-02-15T04:25:40;96153.00;;;6.32;85.56
10978;BME280;5542;48.272;10.794;2024-02-15T04:28:09;96151.19;;;6.32;85.47
10978;BME280;5542;48.272;10.794;2024-02-15T04:30:36;96152.75;;;6.27;85.29
10978;BME280;5542;48.272;10.794;2024-02-15T04:33:05;96151.09;;;6.19;85.71
10978;BME280;5542;48.272;10.794;2024-02-15T04:35:33;96143.38;;;6.11;85.64
10978;BME280;5542;48.272;10.794;2024-02-15T04:38:00;96147.78;;;6.04;85.73
10978;BME280;5542;48.272;10.794;2024-02-15T04:40:29;96151.69;;;5.93;85.77
10978;BME280;5542;48.272;10.794;2024-02-15T04:42:57;96151.03;;;5.91;85.87
10978;BME280;5542;48.272;10.794;2024-02-15T04:45:23;96151.22;;;5.89;85.93
10978;BME280;5542;48.272;10.794;2024-02-15T04:47:51;96152.69;;;5.92;85.89
10978;BME280;5542;48.272;10.794;2024-02-15T04:50:19;96147.47;;;5.92;85.37
10978;BME280;5542;48.272;10.794;2024-02-15T04:52:46;96151.88;;;5.92;85.31
10978;BME280;5542;48.272;10.794;2024-02-15T04:55:13;96153.66;;;5.91;85.08
10978;BME280;5542;48.272;10.794;2024-02-15T04:57:41;96153.22;;;5.87;85.07
10978;BME280;5542;48.272;10.794;2024-02-15T05:00:09;96161.59;;;5.83;85.24
10978;BME280;5542;48.272;10.794;2024-02-15T05:02:38;96155.34;;;5.77;85.26
10978;BME280;5542;48.272;10.794;2024-02-15T05:05:06;96160.91;;;5.74;85.37
10978;BME280;5542;48.272;10.794;2024-02-15T05:07:33;96159.69;;;5.70;85.27
10978;BME280;5542;48.272;10.794;2024-02-15T05:10:00;96159.88;;;5.69;85.34
10978;BME280;5542;48.272;10.794;2024-02-15T05:12:27;96161.06;;;5.66;85.14
10978;BME280;5542;48.272;10.794;2024-02-15T05:14:55;96157.81;;;5.64;85.08
10978;BME280;5542;48.272;10.794;2024-02-15T05:17:22;96155.41;;;5.62;84.95
10978;BME280;5542;48.272;10.794;2024-02-15T05:19:49;96149.19;;;5.63;84.69
10978;BME280;5542;48.272;10.794;2024-02-15T05:22:16;96153.41;;;5.64;84.23
10978;BME280;5542;48.272;10.794;2024-02-15T05:24:43;96149.19;;;5.63;83.86
10978;BME280;5542;48.272;10.794;2024-02-15T05:27:10;96148.13;;;5.58;83.64
10978;BME280;5542;48.272;10.794;2024-02-15T05:29:37;96157.31;;;5.54;83.53
10978;BME280;5542;48.272;10.794;2024-02-15T05:32:05;96156.81;;;5.44;83.75
10978;BME280;5542;48.272;10.794;2024-02-15T05:34:33;96147.75;;;5.39;83.93
10978;BME280;5542;48.272;10.794;2024-02-15T05:37:04;96153.91;;;5.32;83.57
10978;BME280;5542;48.272;10.794;2024-02-15T05:39:31;96147.53;;;5.20;84.04
10978;BME280;5542;48.272;10.794;2024-02-15T05:41:59;96155.72;;;5.17;84.55
10978;BME280;5542;48.272;10.794;2024-02-15T05:44:26;96159.06;;;5.10;84.92
10978;BME280;5542;48.272;10.794;2024-02-15T05:46:53;96157.63;;;5.08;84.88
10978;BME280;5542;48.272;10.794;2024-02-15T05:49:19;96159.63;;;5.06;85.01
10978;BME280;5542;48.272;10.794;2024-02-15T05:51:50;96155.41;;;5.05;85.13
10978;BME280;5542;48.272;10.794;2024-02-15T05:54:18;96157.22;;;5.04;85.11
10978;BME280;5542;48.272;10.794;2024-02-15T05:56:48;96160.44;;;5.06;85.29
10978;BME280;5542;48.272;10.794;2024-02-15T05:59:17;96159.25;;;5.09;85.07
10978;BME280;5542;48.272;10.794;2024-02-15T06:01:45;96152.41;;;5.08;85.28
10978;BME280;5542;48.272;10.794;2024-02-15T06:04:14;96157.81;;;5.06;85.35
10978;BME280;5542;48.272;10.794;2024-02-15T06:06:40;96152.59;;;5.06;85.25
10978;BME280;5542;48.272;10.794;2024-02-15T06:09:09;96147.31;;;5.00;85.41
10978;BME280;5542;48.272;10.794;2024-02-15T06:11:35;96152.34;;;5.01;85.47
10978;BME280;5542;48.272;10.794;2024-02-15T06:14:03;96154.50;;;4.98;85.25
10978;BME280;5542;48.272;10.794;2024-02-15T06:16:31;96150.09;;;4.98;85.28
10978;BME280;5542;48.272;10.794;2024-02-15T06:18:58;96158.75;;;4.99;85.21
10978;BME280;5542;48.272;10.794;2024-02-15T06:21:24;96153.53;;;4.99;84.95
10978;BME280;5542;48.272;10.794;2024-02-15T06:23:51;96159.91;;;4.96;85.07
10978;BME280;5542;48.272;10.794;2024-02-15T06:26:19;96162.50;;;4.96;85.21
10978;BME280;5542;48.272;10.794;2024-02-15T06:28:46;96161.72;;;4.96;85.04
10978;BME280;5542;48.272;10.794;2024-02-15T06:31:26;96162.44;;;4.90;85.16
10978;BME280;5542;48.272;10.794;2024-02-15T06:34:10;96167.41;;;4.84;85.46
10978;BME280;5542;48.272;10.794;2024-02-15T06:36:56;96170.16;;;4.83;85.44
10978;BME280;5542;48.272;10.794;2024-02-15T06:39:40;96171.34;;;4.80;85.25
10978;BME280;5542;48.272;10.794;2024-02-15T06:42:09;96168.63;;;4.74;85.03
10978;BME280;5542;48.272;10.794;2024-02-15T06:44:36;96174.31;;;4.62;85.34
10978;BME280;5542;48.272;10.794;2024-02-15T06:47:05;96182.59;;;4.66;85.43
10978;BME280;5542;48.272;10.794;2024-02-15T06:49:32;96183.13;;;4.61;86.06
10978;BME280;5542;48.272;10.794;2024-02-15T06:51:59;96176.56;;;4.66;86.35
10978;BME280;5542;48.272;10.794;2024-02-15T06:54:27;96178.72;;;4.62;86.34
10978;BME280;5542;48.272;10.794;2024-02-15T06:56:54;96175.47;;;4.60;86.50
10978;BME280;5542;48.272;10.794;2024-02-15T06:59:22;96169.91;;;4.63;86.47
10978;BME280;5542;48.272;10.794;2024-02-15T07:01:49;96172.69;;;4.61;86.65
10978;BME280;5542;48.272;10.794;2024-02-15T07:04:17;96174.31;;;4.62;86.89
10978;BME280;5542;48.272;10.794;2024-02-15T07:06:44;96173.13;;;4.65;86.62
10978;BME280;5542;48.272;10.794;2024-02-15T07:09:13;96179.97;;;4.66;86.86
10978;BME280;5542;48.272;10.794;2024-02-15T07:11:41;96179.97;;;4.66;86.96
10978;BME280;5542;48.272;10.794;2024-02-15T07:14:09;96175.66;;;4.73;87.16
10978;BME280;5542;48.272;10.794;2024-02-15T07:16:37;96175.31;;;4.76;87.06
10978;BME280;5542;48.272;10.794;2024-02-15T07:19:03;96171.34;;;4.80;87.18
10978;BME280;5542;48.272;10.794;2024-02-15T07:21:31;96177.53;;;4.94;87.23
10978;BME280;5542;48.272;10.794;2024-02-15T07:23:57;96173.56;;;5.13;86.88
10978;BME280;5542;48.272;10.794;2024-02-15T07:26:24;96171.53;;;5.30;86.02
10978;BME280;5542;48.272;10.794;2024-02-15T07:28:51;96174.97;;;5.52;85.78
10978;BME280;5542;48.272;10.794;2024-02-15T07:31:19;96172.81;;;5.77;85.07
10978;BME280;5542;48.272;10.794;2024-02-15T07:33:48;96167.69;;;6.11;82.23
10978;BME280;5542;48.272;10.794;2024-02-15T07:36:18;96166.78;;;6.54;80.44
10978;BME280;5542;48.272;10.794;2024-02-15T07:38:46;96155.75;;;7.00;77.07
10978;BME280;5542;48.272;10.794;2024-02-15T07:41:13;96158.66;;;7.18;75.52
10978;BME280;5542;48.272;10.794;2024-02-15T07:43:40;96167.00;;;7.55;74.53
10978;BME280;5542;48.272;10.794;2024-02-15T07:46:07;96159.41;;;7.80;72.04
10978;BME280;5542;48.272;10.794;2024-02-15T07:48:34;96156.41;;;8.03;71.00
10978;BME280;5542;48.272;10.794;2024-02-15T07:51:02;96150.34;;;8.29;70.28
10978;BME280;5542;48.272;10.794;2024-02-15T07:53:29;96151.50;;;8.79;68.37
10978;BME280;5542;48.272;10.794;2024-02-15T07:55:56;96143.06;;;9.15;66.72
10978;BME280;5542;48.272;10.794;2024-02-15T07:58:23;96139.00;;;9.58;64.05
10978;BME280;5542;48.272;10.794;2024-02-15T08:00:50;96133.97;;;9.88;63.03
10978;BME280;5542;48.272;10.794;2024-02-15T08:03:16;96134.19;;;10.11;62.31
10978;BME280;5542;48.272;10.794;2024-02-15T08:05:43;96131.44;;;10.31;59.39
10978;BME280;5542;48.272;10.794;2024-02-15T08:08:11;96131.31;;;10.44;59.74
10978;BME280;5542;48.272;10.794;2024-02-15T08:10:38;96129.13;;;10.60;58.46
10978;BME280;5542;48.272;10.794;2024-02-15T08:13:04;96139.88;;;10.76;58.29
10978;BME280;5542;48.272;10.794;2024-02-15T08:15:31;96128.78;;;10.93;58.10
10978;BME280;5542;48.272;10.794;2024-02-15T08:17:58;96126.00;;;10.88;58.20
10978;BME280;5542;48.272;10.794;2024-02-15T08:20:25;96121.38;;;10.83;57.58
10978;BME280;5542;48.272;10.794;2024-02-15T08:22:56;96122.25;;;10.59;58.19
10978;BME280;5542;48.272;10.794;2024-02-15T08:25:25;96123.63;;;10.18;60.19
10978;BME280;5542;48.272;10.794;2024-02-15T08:27:52;96123.94;;;10.03;61.26
10978;BME280;5542;48.272;10.794;2024-02-15T08:30:19;96123.63;;;9.93;61.82
10978;BME280;5542;48.272;10.794;2024-02-15T08:32:45;96117.72;;;9.97;62.30
10978;BME280;5542;48.272;10.794;2024-02-15T08:35:13;96114.97;;;10.11;62.46
10978;BME280;5542;48.272;10.794;2024-02-15T08:37:40;96113.31;;;10.41;60.68
10978;BME280;5542;48.272;10.794;2024-02-15T08:40:09;96105.22;;;10.80;60.23
10978;BME280;5542;48.272;10.794;2024-02-15T08:42:39;96108.00;;;11.33;58.63
10978;BME280;5542;48.272;10.794;2024-02-15T08:45:07;96102.94;;;11.92;56.82
10978;BME280;5542;48.272;10.794;2024-02-15T08:47:36;96100.44;;;12.32;54.74
10978;BME280;5542;48.272;10.794;2024-02-15T08:50:04;96091.91;;;12.65;54.55
10978;BME280;5542;48.272;10.794;2024-02-15T08:52:31;96092.16;;;13.04;52.55
10978;BME280;5542;48.272;10.794;2024-02-15T08:54:58;96086.75;;;13.22;51.71
10978;BME280;5542;48.272;10.794;2024-02-15T08:57:26;96086.16;;;13.20;51.31
10978;BME280;5542;48.272;10.794;2024-02-15T08:59:54;96080.94;;;13.37;51.38
10978;BME280;5542;48.272;10.794;2024-02-15T09:02:20;96082.44;;;13.78;50.65
10978;BME280;5542;48.272;10.794;2024-02-15T09:04:47;96075.00;;;14.09;49.75
10978;BME280;5542;48.272;10.794;2024-02-15T09:07:14;96071.53;;;14.25;49.25
10978;BME280;5542;48.272;10.794;2024-02-15T09:09:40;96063.75;;;14.35;48.83
10978;BME280;5542;48.272;10.794;2024-02-15T09:12:31;96068.81;;;14.54;49.22
10978;BME280;5542;48.272;10.794;2024-02-15T09:15:31;96056.94;;;14.78;46.94
10978;BME280;5542;48.272;10.794;2024-02-15T09:18:04;96059.69;;;14.89;47.53
10978;BME280;5542;48.272;10.794;2024-02-15T09:21:03;96057.41;;;14.97;46.84
10978;BME280;5542;48.272;10.794;2024-02-15T09:23:32;96056.25;;;14.88;47.02
10978;BME280;5542;48.272;10.794;2024-02-15T09:25:59;96056.09;;;15.00;47.95
10978;BME280;5542;48.272;10.794;2024-02-15T09:28:35;96048.16;;;15.22;47.31
10978;BME280;5542;48.272;10.794;2024-02-15T09:31:03;96043.22;;;15.08;47.25
10978;BME280;5542;48.272;10.794;2024-02-15T09:33:30;96044.06;;;15.14;48.34
10978;BME280;5542;48.272;10.794;2024-02-15T09:35:57;96042.31;;;14.98;47.97
10978;BME280;5542;48.272;10.794;2024-02-15T09:38:46;96042.38;;;14.20;49.01
10978;BME280;5542;48.272;10.794;2024-02-15T09:41:48;96046.25;;;13.79;50.58
10978;BME280;5542;48.272;10.794;2024-02-15T09:44:53;96037.56;;;13.67;52.05
10978;BME280;5542;48.272;10.794;2024-02-15T09:48:06;96044.53;;;13.56;52.79
10978;BME280;5542;48.272;10.794;2024-02-15T10:05:19;96023.25;;;13.46;53.45
10978;BME280;5542;48.272;10.794;2024-02-15T10:07:54;96022.69;;;13.61;54.91
10978;BME280;5542;48.272;10.794;2024-02-15T10:10:32;96013.56;;;13.68;54.47
10978;BME280;5542;48.272;10.794;2024-02-15T10:13:05;96016.59;;;13.60;53.79
10978;BME280;5542;48.272;10.794;2024-02-15T10:15:36;96018.03;;;13.51;54.46
10978;BME280;5542;48.272;10.794;2024-02-15T10:18:04;96010.34;;;13.49;53.88
10978;BME280;5542;48.272;10.794;2024-02-15T10:20:42;96014.50;;;13.45;54.68
10978;BME280;5542;48.272;10.794;2024-02-15T10:23:10;96010.09;;;13.51;55.69
10978;BME280;5542;48.272;10.794;2024-02-15T10:25:38;96014.69;;;13.55;55.68
10978;BME280;5542;48.272;10.794;2024-02-15T10:28:12;96009.38;;;13.55;55.98
10978;BME280;5542;48.272;10.794;2024-02-15T10:30:53;96006.34;;;13.47;56.19
10978;BME280;5542;48.272;10.794;2024-02-15T10:33:26;96007.47;;;13.51;57.02
10978;BME280;5542;48.272;10.794;2024-02-15T10:36:04;96006.19;;;13.53;57.66
10978;BME280;5542;48.272;10.794;2024-02-15T10:38:31;96000.09;;;13.53;57.51
10978;BME280;5542;48.272;10.794;2024-02-15T10:41:41;95998.19;;;13.48;57.59
10978;BME280;5542;48.272;10.794;2024-02-15T10:44:03;95989.22;;;13.66;56.75
10978;BME280;5542;48.272;10.794;2024-02-15T10:46:30;95994.66;;;13.60;57.07
10978;BME280;5542;48.272;10.794;2024-02-15T10:48:57;95990.28;;;13.48;56.78
10978;BME280;5542;48.272;10.794;2024-02-15T10:51:25;95989.53;;;13.36;57.79
10978;BME280;5542;48.272;10.794;2024-02-15T10:53:58;95986.03;;;13.19;57.76
10978;BME280;5542;48.272;10.794;2024-02-15T10:56:34;95982.59;;;13.18;58.76
10978;BME280;5542;48.272;10.794;2024-02-15T10:59:10;95985.00;;;13.20;59.24
10978;BME280;5542;48.272;10.794;2024-02-15T11:01:40;95978.16;;;13.36;58.62
10978;BME280;5542;48.272;10.794;2024-02-15T11:04:13;95975.75;;;13.51;58.98
10978;BME280;5542;48.272;10.794;2024-02-15T11:06:45;95974.00;;;13.56;58.33
10978;BME280;5542;48.272;10.794;2024-02-15T11:09:26;95968.31;;;13.65;58.76
10978;BME280;5542;48.272;10.794;2024-02-15T11:11:54;95966.13;;;13.62;59.38
10978;BME280;5542;48.272;10.794;2024-02-15T11:14:26;95964.38;;;13.84;59.66
10978;BME280;5542;48.272;10.794;2024-02-15T11:16:54;95957.16;;;13.96;58.73
10978;BME280;5542;48.272;10.794;2024-02-15T11:19:45;95956.97;;;13.86;58.46
10978;BME280;5542;48.272;10.794;2024-02-15T11:22:14;95945.72;;;13.74;58.13
10978;BME280;5542;48.272;10.794;2024-02-15T11:24:52;95944.06;;;13.68;59.08
10978;BME280;5542;48.272;10.794;2024-02-15T11:27:25;95943.81;;;13.69;58.91
10978;BME280;5542;48.272;10.794;2024-02-15T11:29:57;95938.13;;;13.61;58.65
10978;BME280;5542;48.272;10.794;2024-02-15T11:32:39;95936.41;;;13.71;59.22
10978;BME280;5542;48.272;10.794;2024-02-15T11:35:10;95929.94;;;13.79;58.80
10978;BME280;5542;48.272;10.794;2024-02-15T11:37:52;95924.47;;;13.86;58.94
10978;BME280;5542;48.272;10.794;2024-02-15T11:40:20;95925.13;;;13.76;59.43
10978;BME280;5542;48.272;10.794;2024-02-15T11:42:48;95918.31;;;13.80;60.21
10978;BME280;5542;48.272;10.794;2024-02-15T11:45:36;95917.75;;;13.78;59.35
10978;BME280;5542;48.272;10.794;2024-02-15T11:48:09;95920.16;;;13.79;60.11
10978;BME280;5542;48.272;10.794;2024-02-15T11:50:37;95910.78;;;13.72;59.64
10978;BME280;5542;48.272;10.794;2024-02-15T11:53:06;95915.59;;;13.75;59.20
10978;BME280;5542;48.272;10.794;2024-02-15T11:55:35;95906.06;;;13.74;59.96
10978;BME280;5542;48.272;10.794;2024-02-15T11:58:03;95900.31;;;13.77;59.24
10978;BME280;5542;48.272;10.794;2024-02-15T12:00:42;95905.09;;;13.80;59.78
10978;BME280;5542;48.272;10.794;2024-02-15T12:03:28;95894.03;;;13.83;60.05
10978;BME280;5542;48.272;10.794;2024-02-15T12:06:16;95895.63;;;13.84;60.12
10978;BME280;5542;48.272;10.794;2024-02-15T12:09:02;95891.03;;;13.96;59.19
10978;BME280;5542;48.272;10.794;2024-02-15T12:11:47;95887.94;;;14.04;59.54
10978;BME280;5542;48.272;10.794;2024-02-15T12:14:31;95888.69;;;14.22;59.07
10978;BME280;5542;48.272;10.794;2024-02-15T12:17:15;95876.59;;;14.26;58.07
10978;BME280;5542;48.272;10.794;2024-02-15T12:20:00;95880.94;;;14.37;58.57
10978;BME280;5542;48.272;10.794;2024-02-15T12:22:33;95874.91;;;14.42;56.99
10978;BME280;5542;48.272;10.794;2024-02-15T12:25:03;95875.59;;;14.32;57.73
10978;BME280;5542;48.272;10.794;2024-02-15T12:27:37;95869.00;;;14.34;57.01
10978;BME280;5542;48.272;10.794;2024-02-15T12:30:05;95865.84;;;14.38;56.36
10978;BME280;5542;48.272;10.794;2024-02-15T12:32:34;95862.19;;;14.39;57.18
10978;BME280;5542;48.272;10.794;2024-02-15T12:35:10;95858.13;;;14.53;56.86
10978;BME280;5542;48.272;10.794;2024-02-15T12:37:41;95861.56;;;14.53;57.16
10978;BME280;5542;48.272;10.794;2024-02-15T12:40:12;95861.19;;;14.45;55.88
10978;BME280;5542;48.272;10.794;2024-02-15T12:42:41;95857.63;;;14.56;56.04
10978;BME280;5542;48.272;10.794;2024-02-15T12:45:15;95863.09;;;14.27;56.62
10978;BME280;5542;48.272;10.794;2024-02-15T12:47:43;95857.81;;;14.27;57.00
10978;BME280;5542;48.272;10.794;2024-02-15T12:50:14;95858.78;;;14.43;56.26
10978;BME280;5542;48.272;10.794;2024-02-15T12:52:41;95857.63;;;14.34;56.37
10978;BME280;5542;48.272;10.794;2024-02-15T12:55:17;95851.78;;;14.32;56.27
10978;BME280;5542;48.272;10.794;2024-02-15T12:57:47;95844.50;;;14.44;56.23
10978;BME280;5542;48.272;10.794;2024-02-15T13:00:20;95840.88;;;14.50;55.68
10978;BME280;5542;48.272;10.794;2024-02-15T13:02:48;95833.88;;;14.66;55.19
10978;BME280;5542;48.272;10.794;2024-02-15T13:05:15;95834.16;;;14.65;54.75
10978;BME280;5542;48.272;10.794;2024-02-15T13:07:44;95831.41;;;14.54;55.72
10978;BME280;5542;48.272;10.794;2024-02-15T13:10:10;95825.94;;;14.66;54.49
10978;BME280;5542;48.272;10.794;2024-02-15T13:12:41;95826.13;;;14.54;53.51
10978;BME280;5542;48.272;10.794;2024-02-15T13:15:10;95824.00;;;14.56;53.99
10978;BME280;5542;48.272;10.794;2024-02-15T13:17:40;95824.84;;;14.62;54.69
10978;BME280;5542;48.272;10.794;2024-02-15T13:20:07;95824.91;;;14.67;54.36
10978;BME280;5542;48.272;10.794;2024-02-15T13:22:38;95816.88;;;14.89;53.86
10978;BME280;5542;48.272;10.794;2024-02-15T13:25:05;95813.78;;;14.97;51.73
10978;BME280;5542;48.272;10.794;2024-02-15T13:27:34;95807.88;;;14.90;52.18
10978;BME280;5542;48.272;10.794;2024-02-15T13:30:03;95807.31;;;14.83;52.17
10978;BME280;5542;48.272;10.794;2024-02-15T13:32:34;95800.66;;;14.80;52.33
10978;BME280;5542;48.272;10.794;2024-02-15T13:35:02;95810.25;;;14.87;51.48
10978;BME280;5542;48.272;10.794;2024-02-15T13:37:40;95803.56;;;14.79;51.10